This is the latest recevied weather packets stored in our database for station/object W4GAP. If no packets are shown the sender has not sent any weather packets the latest 10 day(s).
| Time | Temp. | Humidity | Pressure | Rain* | Wind** | Luminosity | Snow |
|---|---|---|---|---|---|---|---|
| 1778083727 | 22.78° C | 73% | 1012.5 hPa | 0 mm | - | 301 W/m² | - |
| 1778083424 | 22.78° C | 74% | 1012.7 hPa | 0 mm | - | 115 W/m² | - |
| 1778083123 | 22.22° C | 75% | 1012.4 hPa | 0 mm | - | 328 W/m² | - |
| 1778082819 | 21.67° C | 77% | 1012.6 hPa | 0 mm | - | 476 W/m² | - |
| 1778081696 | 20.56° C | 81% | 1013 hPa | 0 mm | - | 55 W/m² | - |
| 1778081394 | 20.56° C | 81% | 1013.1 hPa | 0 mm | - | 38 W/m² | - |
| 1778081091 | 20° C | 81% | 1012.9 hPa | 0 mm | - | 51 W/m² | - |
| 1778080789 | 20° C | 81% | 1012.8 hPa | 0 mm | - | 49 W/m² | - |
| 1778080486 | 20.56° C | 80% | 1012.7 hPa | 0 mm | - | 14 W/m² | - |
| 1778080184 | 20.56° C | 77% | 1012.6 hPa | 0 mm | - | 39 W/m² | - |
| 1778079879 | 20.56° C | 76% | 1013.1 hPa | 0 mm | - | 25 W/m² | - |
| 1778079577 | 21.11° C | 76% | 1012.9 hPa | 0 mm | - | 32 W/m² | - |
| 1778079273 | 20.56° C | 77% | 1012.9 hPa | 0 mm | - | 47 W/m² | - |
| 1778078971 | 20.56° C | 76% | 1012.7 hPa | 0 mm | - | 46 W/m² | - |
| 1778078667 | 20.56° C | 77% | 1012.7 hPa | 0 mm | - | 46 W/m² | - |
| 1778078366 | 20.56° C | 76% | 1013 hPa | 0 mm | - | 39 W/m² | - |
| 1778078062 | 21.11° C | 76% | 1013 hPa | 0 mm | - | 29 W/m² | - |
| 1778077760 | 21.11° C | 76% | 1012.8 hPa | 0 mm | - | 32 W/m² | - |
| 1778077458 | 21.11° C | 76% | 1012.6 hPa | 0 mm | - | 33 W/m² | - |
| 1778077156 | 21.11° C | 75% | 1013 hPa | 0 mm | - | 31 W/m² | - |
| 1778076854 | 21.11° C | 75% | 1012.7 hPa | 0 mm | - | 39 W/m² | - |
| 1778076552 | 21.11° C | 75% | 1012.4 hPa | 0 mm | - | 55 W/m² | - |
| 1778076248 | 21.11° C | 76% | 1012.3 hPa | 0 mm | - | 53 W/m² | - |
| 1778075946 | 21.11° C | 76% | 1012.3 hPa | 0 mm | - | 39 W/m² | - |
| 1778075642 | 21.11° C | 76% | 1012.1 hPa | 0 mm | - | 47 W/m² | - |
* Rain latest hour (hover to see other rain measurements)
** Current wind speed in m/s (hover to see current wind gust speed)